createdAt,value
2023-03-11T00:00:50.607Z,42.47
2023-03-11T00:03:20.694Z,42.36
2023-03-11T00:05:49.054Z,42.25
2023-03-11T00:08:20.172Z,42.63
2023-03-11T00:10:50.111Z,42.16
2023-03-11T00:13:19.977Z,41.88
2023-03-11T00:15:50.986Z,40.99
2023-03-11T00:18:19.752Z,41.75
2023-03-11T00:20:48.558Z,41.06
2023-03-11T00:23:17.755Z,41.21
2023-03-11T00:25:47.590Z,40.84
2023-03-11T00:28:17.088Z,41.47
2023-03-11T00:30:47.947Z,41.09
2023-03-11T00:33:17.958Z,40.53
2023-03-11T00:35:46.301Z,40.52
2023-03-11T00:38:17.865Z,40.77
2023-03-11T00:40:48.833Z,40.99
2023-03-11T00:43:18.127Z,40.57
2023-03-11T00:45:48.026Z,40.64
2023-03-11T00:48:16.570Z,40.44
2023-03-11T00:50:45.188Z,40.42
2023-03-11T00:53:14.190Z,40.31
2023-03-11T00:55:42.759Z,39.50
2023-03-11T00:58:13.652Z,38.92
2023-03-11T01:00:42.195Z,37.71
2023-03-11T01:03:12.033Z,37.82
2023-03-11T01:05:40.567Z,38.34
2023-03-11T01:08:08.801Z,37.82
2023-03-11T01:10:37.686Z,37.50
2023-03-11T01:13:06.688Z,37.57
2023-03-11T01:15:42.510Z,37.50
2023-03-11T01:18:15.228Z,37.01
2023-03-11T01:20:44.202Z,37.36
2023-03-11T01:23:13.937Z,36.95
2023-03-11T01:25:42.506Z,37.44
2023-03-11T01:28:11.714Z,36.90
2023-03-11T01:30:43.327Z,37.49
2023-03-11T01:33:17.984Z,37.40
2023-03-11T01:35:47.239Z,36.88
2023-03-11T01:38:16.062Z,37.47
2023-03-11T01:40:47.626Z,37.97
2023-03-11T01:43:54.599Z,37.99
2023-03-11T01:46:25.311Z,37.59
2023-03-11T01:48:57.737Z,37.80
2023-03-11T01:51:30.416Z,38.19
2023-03-11T01:54:04.045Z,38.08
2023-03-11T01:56:33.237Z,37.93
2023-03-11T01:59:02.083Z,38.22
2023-03-11T02:01:31.031Z,38.21
2023-03-11T02:04:04.096Z,38.56
2023-03-11T02:06:34.687Z,38.16
2023-03-11T02:09:03.371Z,38.49
2023-03-11T02:11:32.371Z,38.31
2023-03-11T02:14:04.784Z,38.16
2023-03-11T02:16:33.425Z,38.19
2023-03-11T02:19:25.589Z,38.69
2023-03-11T02:21:54.402Z,38.49
2023-03-11T02:24:30.776Z,38.40
2023-03-11T02:27:03.048Z,38.55
2023-03-11T02:29:31.851Z,38.62
2023-03-11T02:32:01.382Z,38.86
2023-03-11T02:34:32.677Z,38.94
2023-03-11T02:37:02.189Z,38.84
2023-03-11T02:39:35.648Z,38.72
2023-03-11T02:42:11.261Z,38.98
2023-03-11T02:44:40.898Z,39.04
2023-03-11T02:47:09.283Z,39.56
2023-03-11T02:49:38.054Z,39.44
2023-03-11T02:52:07.708Z,39.89
2023-03-11T02:54:36.055Z,40.08
2023-03-11T02:57:06.021Z,40.32
2023-03-11T02:59:34.264Z,40.68
2023-03-11T03:02:02.534Z,40.63
2023-03-11T03:04:30.779Z,40.88
2023-03-11T03:06:59.015Z,41.50
2023-03-11T03:09:27.456Z,41.46
2023-03-11T03:11:55.710Z,41.61
2023-03-11T03:14:25.376Z,41.34
2023-03-11T03:16:54.332Z,41.73
2023-03-11T03:19:22.695Z,41.41
2023-03-11T03:21:50.993Z,41.48
2023-03-11T03:24:19.223Z,41.82
2023-03-11T03:26:47.476Z,41.71
2023-03-11T03:29:15.733Z,41.62
2023-03-11T03:31:45.502Z,41.64
2023-03-11T03:34:13.832Z,41.81
2023-03-11T03:36:42.087Z,41.67
2023-03-11T03:39:10.440Z,41.68
2023-03-11T03:41:38.819Z,42.20
2023-03-11T03:44:07.135Z,42.53
2023-03-11T03:46:35.372Z,42.45
2023-03-11T03:49:05.347Z,43.31
2023-03-11T03:51:33.628Z,42.97
2023-03-11T03:54:01.925Z,43.08
2023-03-11T03:56:30.329Z,43.02
2023-03-11T03:58:58.597Z,43.11
2023-03-11T04:01:26.818Z,43.48
2023-03-11T04:03:55.100Z,43.05
2023-03-11T04:06:27.320Z,43.51
2023-03-11T04:08:56.480Z,44.25
2023-03-11T04:11:24.900Z,45.19
2023-03-11T04:13:53.173Z,45.23
2023-03-11T04:16:24.285Z,45.20
2023-03-11T04:18:52.624Z,44.85
2023-03-11T04:21:20.934Z,44.98
2023-03-11T04:23:51.050Z,44.38
2023-03-11T04:26:19.326Z,44.55
2023-03-11T04:28:47.616Z,44.28
2023-03-11T04:31:16.101Z,44.32
2023-03-11T04:33:44.418Z,44.00
2023-03-11T04:36:14.247Z,44.08
2023-03-11T04:38:42.533Z,44.11
2023-03-11T04:41:12.199Z,44.02
2023-03-11T04:43:40.452Z,44.21
2023-03-11T04:46:08.749Z,43.99
2023-03-11T04:48:37.043Z,44.58
2023-03-11T04:51:05.863Z,44.06
2023-03-11T04:53:34.155Z,44.27
2023-03-11T04:56:02.465Z,43.94
2023-03-11T04:58:32.169Z,44.29
2023-03-11T05:01:00.444Z,44.39
2023-03-11T05:03:28.689Z,43.93
2023-03-11T05:05:57.517Z,44.11
2023-03-11T05:08:25.927Z,43.77
2023-03-11T05:10:54.605Z,43.85
2023-03-11T05:13:23.381Z,43.62
2023-03-11T05:15:53.088Z,43.40
2023-03-11T05:18:21.578Z,43.15
2023-03-11T05:20:49.883Z,43.22
2023-03-11T05:23:18.221Z,42.74
2023-03-11T05:25:46.797Z,42.55
2023-03-11T05:28:15.002Z,42.73
2023-03-11T05:30:43.247Z,42.53
2023-03-11T05:33:12.892Z,42.79
2023-03-11T05:35:41.173Z,42.58
2023-03-11T05:38:09.457Z,42.78
2023-03-11T05:40:37.705Z,42.62
2023-03-11T05:43:06.111Z,42.31
2023-03-11T05:45:34.371Z,42.72
2023-03-11T05:48:02.621Z,42.54
2023-03-11T05:50:32.232Z,42.63
2023-03-11T05:53:00.436Z,42.71
2023-03-11T05:55:28.733Z,42.49
2023-03-11T05:57:57.005Z,42.80
2023-03-11T06:00:25.338Z,42.64
2023-03-11T06:02:54.025Z,42.16
2023-03-11T06:05:22.559Z,42.75
2023-03-11T06:07:53.238Z,42.49
2023-03-11T06:10:21.491Z,42.42
2023-03-11T06:12:49.711Z,42.31
2023-03-11T06:15:18.203Z,42.82
2023-03-11T06:17:46.495Z,42.53
2023-03-11T06:20:15.049Z,42.64
2023-03-11T06:22:43.315Z,43.00
2023-03-11T06:25:13.026Z,42.55
2023-03-11T06:27:41.368Z,42.53
2023-03-11T06:30:11.635Z,42.92
2023-03-11T06:32:39.983Z,42.82
2023-03-11T06:35:09.532Z,43.11
2023-03-11T06:37:38.105Z,42.90
2023-03-11T06:40:08.461Z,42.74
2023-03-11T06:42:38.248Z,42.94
2023-03-11T06:45:07.929Z,42.81
2023-03-11T06:47:36.232Z,43.11
2023-03-11T06:50:07.399Z,42.83
2023-03-11T06:52:35.930Z,42.79
2023-03-11T06:55:04.952Z,42.78
2023-03-11T06:57:34.030Z,42.63
2023-03-11T07:00:06.173Z,42.50
2023-03-11T07:02:34.400Z,42.61
2023-03-11T07:05:02.834Z,42.45
2023-03-11T07:07:31.073Z,42.69
2023-03-11T07:09:59.393Z,42.91
2023-03-11T07:12:27.780Z,42.85
2023-03-11T07:14:57.279Z,42.71
2023-03-11T07:17:28.429Z,42.66
2023-03-11T07:19:56.782Z,42.72
2023-03-11T07:22:25.039Z,42.39
2023-03-11T07:24:53.491Z,42.63
2023-03-11T07:27:22.492Z,42.63
2023-03-11T07:29:50.742Z,42.75
2023-03-11T07:32:19.102Z,42.29
2023-03-11T07:34:48.751Z,42.75
2023-03-11T07:37:17.020Z,42.83
2023-03-11T07:39:45.309Z,42.90
2023-03-11T07:42:13.583Z,42.38
2023-03-11T07:44:41.831Z,42.28
2023-03-11T07:47:10.043Z,41.88
2023-03-11T07:49:38.419Z,42.05
2023-03-11T07:52:08.839Z,41.64
2023-03-11T07:54:37.106Z,41.98
2023-03-11T07:57:05.832Z,41.97
2023-03-11T07:59:34.062Z,41.91
2023-03-11T08:02:04.811Z,41.83
2023-03-11T08:04:33.149Z,41.58
2023-03-11T08:07:01.421Z,41.25
2023-03-11T08:09:31.131Z,41.02
2023-03-11T08:11:59.336Z,40.66
2023-03-11T08:14:27.610Z,40.18
2023-03-11T08:16:55.809Z,39.58
2023-03-11T08:19:24.058Z,39.03
2023-03-11T08:21:52.306Z,38.87
2023-03-11T08:24:20.577Z,39.49
2023-03-11T08:26:50.276Z,39.10
2023-03-11T08:29:18.526Z,38.96
2023-03-11T08:31:46.794Z,38.99
2023-03-11T08:34:15.768Z,39.85
2023-03-11T08:36:44.828Z,40.11
2023-03-11T08:39:13.131Z,39.38
2023-03-11T08:41:41.512Z,38.94
2023-03-11T08:44:11.206Z,38.49
2023-03-11T08:46:40.575Z,38.60
2023-03-11T08:49:09.908Z,38.63
2023-03-11T08:51:38.634Z,38.61
2023-03-11T08:54:07.165Z,38.71
2023-03-11T08:56:35.397Z,38.74
2023-03-11T08:59:03.940Z,38.46
2023-03-11T09:01:33.589Z,38.89
2023-03-11T09:04:01.841Z,38.92
2023-03-11T09:06:30.877Z,38.79
2023-03-11T09:08:59.294Z,39.19
2023-03-11T09:11:28.005Z,37.83
2023-03-11T09:13:56.368Z,37.89
2023-03-11T09:16:25.900Z,37.87
2023-03-11T09:18:55.529Z,38.08
2023-03-11T09:21:24.050Z,37.43
2023-03-11T09:23:52.344Z,37.48
2023-03-11T09:26:20.604Z,37.45
2023-03-11T09:28:49.912Z,36.68
2023-03-11T09:31:19.180Z,37.14
2023-03-11T09:33:48.109Z,37.42
2023-03-11T09:36:21.221Z,37.09
2023-03-11T09:38:50.443Z,36.83
2023-03-11T09:41:28.793Z,36.10
2023-03-11T09:44:15.603Z,36.45
2023-03-11T09:47:30.372Z,36.76
2023-03-11T09:50:13.055Z,36.45
2023-03-11T09:52:49.550Z,36.63
2023-03-11T09:55:37.394Z,37.03
2023-03-11T09:58:14.369Z,36.90
2023-03-11T10:00:43.181Z,36.67
2023-03-11T10:03:27.330Z,36.69
2023-03-11T10:06:04.787Z,36.82
2023-03-11T10:08:43.237Z,37.01
2023-03-11T10:11:30.809Z,37.05
2023-03-11T10:14:12.111Z,37.05
2023-03-11T10:16:52.117Z,36.94
2023-03-11T10:19:35.847Z,36.68
2023-03-11T10:22:15.129Z,36.60
2023-03-11T10:25:01.135Z,37.08
2023-03-11T10:27:34.180Z,37.32
2023-03-11T10:30:11.365Z,37.57
2023-03-11T10:32:46.319Z,37.84
2023-03-11T10:35:20.167Z,36.82
2023-03-11T10:37:55.237Z,36.07
2023-03-11T10:40:36.260Z,35.50
2023-03-11T10:43:10.726Z,35.44
2023-03-11T10:45:44.682Z,35.70
2023-03-11T10:48:16.317Z,35.80
2023-03-11T10:50:51.742Z,35.63
2023-03-11T10:53:21.584Z,35.50
2023-03-11T10:55:53.856Z,35.50
2023-03-11T10:58:25.454Z,35.17
2023-03-11T11:01:06.570Z,35.25
2023-03-11T11:03:36.006Z,35.38
2023-03-11T11:06:07.445Z,35.51
2023-03-11T11:08:36.028Z,34.92
2023-03-11T11:11:22.728Z,34.66
2023-03-11T11:13:58.224Z,34.78
2023-03-11T11:16:27.268Z,33.95
2023-03-11T11:19:01.509Z,33.12
2023-03-11T11:21:33.488Z,34.17
2023-03-11T11:24:13.536Z,34.13
2023-03-11T11:26:43.908Z,33.44
2023-03-11T11:29:21.928Z,33.28
2023-03-11T11:31:50.330Z,32.96
2023-03-11T11:34:31.378Z,33.08
2023-03-11T11:37:03.475Z,32.74
2023-03-11T11:39:38.391Z,32.96
2023-03-11T11:42:11.729Z,33.19
2023-03-11T11:44:40.283Z,33.44
2023-03-11T11:47:18.054Z,34.50
2023-03-11T11:49:54.563Z,34.59
2023-03-11T11:52:28.396Z,34.12
2023-03-11T11:55:05.367Z,33.42
2023-03-11T11:57:35.742Z,32.89
2023-03-11T12:00:09.523Z,32.79
2023-03-11T12:02:56.139Z,32.67
2023-03-11T12:05:30.986Z,32.47
2023-03-11T12:08:14.585Z,32.79
2023-03-11T12:10:49.313Z,33.22
2023-03-11T12:13:49.550Z,32.84
2023-03-11T12:16:32.500Z,32.50
2023-03-11T12:19:11.558Z,32.45
2023-03-11T12:22:13.200Z,32.70
2023-03-11T12:25:06.624Z,32.83
2023-03-11T12:27:43.314Z,32.61
2023-03-11T12:30:19.133Z,32.78
2023-03-11T12:32:52.698Z,32.39
2023-03-11T12:35:27.693Z,32.44
2023-03-11T12:38:15.908Z,32.68
2023-03-11T12:41:06.066Z,33.16
2023-03-11T12:44:28.870Z,32.86
2023-03-11T12:47:24.030Z,32.66
2023-03-11T12:49:55.295Z,33.00
2023-03-11T12:52:30.123Z,33.48
2023-03-11T12:55:38.582Z,33.50
2023-03-11T12:58:52.144Z,33.85
2023-03-11T13:01:45.313Z,33.46
2023-03-11T13:04:47.520Z,32.73
2023-03-11T13:07:41.899Z,31.11
2023-03-11T13:10:20.422Z,32.17
2023-03-11T13:12:50.640Z,32.21
2023-03-11T13:15:41.664Z,31.86
2023-03-11T13:18:24.562Z,31.46
2023-03-11T13:20:59.332Z,31.27
2023-03-11T13:23:40.571Z,31.36
2023-03-11T13:26:35.075Z,31.25
2023-03-11T13:29:52.998Z,31.21
2023-03-11T13:32:41.131Z,31.42
2023-03-11T13:35:35.148Z,31.60
2023-03-11T13:38:36.187Z,31.66
2023-03-11T13:41:13.267Z,31.72
2023-03-11T13:43:47.361Z,31.86
2023-03-11T13:46:29.185Z,32.02
2023-03-11T13:49:07.663Z,32.12
2023-03-11T13:51:43.419Z,32.31
2023-03-11T13:54:34.170Z,32.22
2023-03-11T13:57:04.264Z,32.63
2023-03-11T13:59:35.889Z,32.49
2023-03-11T14:02:18.123Z,32.71
2023-03-11T14:04:53.172Z,32.87
2023-03-11T14:07:31.777Z,32.91
2023-03-11T14:10:34.906Z,33.17
2023-03-11T14:13:16.807Z,33.12
2023-03-11T14:15:53.668Z,32.87
2023-03-11T14:18:43.771Z,32.93
2023-03-11T14:21:17.155Z,32.85
2023-03-11T14:23:48.171Z,32.88
2023-03-11T14:26:21.098Z,32.81
2023-03-11T14:28:53.807Z,32.90
2023-03-11T14:31:32.268Z,33.15
2023-03-11T14:34:06.743Z,33.39
2023-03-11T14:36:43.506Z,33.67
2023-03-11T14:39:31.458Z,33.47
2023-03-11T14:42:08.122Z,33.50
2023-03-11T14:44:40.764Z,33.29
2023-03-11T14:47:14.613Z,33.61
2023-03-11T14:49:43.701Z,33.72
2023-03-11T14:52:20.204Z,33.42
2023-03-11T14:54:50.117Z,33.07
2023-03-11T14:57:27.223Z,32.83
2023-03-11T14:59:57.542Z,32.74
2023-03-11T15:02:40.960Z,32.80
2023-03-11T15:05:19.023Z,32.86
2023-03-11T15:07:48.746Z,32.63
2023-03-11T15:10:17.234Z,32.78
2023-03-11T15:12:47.048Z,32.57
2023-03-11T15:15:27.229Z,32.83
2023-03-11T15:17:58.302Z,32.80
2023-03-11T15:20:31.019Z,33.70
2023-03-11T15:23:02.465Z,33.93
2023-03-11T15:25:35.165Z,34.00
2023-03-11T15:28:24.357Z,34.14
2023-03-11T15:30:53.545Z,34.28
2023-03-11T15:33:24.053Z,34.63
2023-03-11T15:35:52.461Z,34.52
2023-03-11T15:38:25.495Z,34.29
2023-03-11T15:40:56.814Z,34.28
2023-03-11T15:43:30.533Z,34.28
2023-03-11T15:46:00.386Z,34.39
2023-03-11T15:48:31.439Z,34.31
2023-03-11T15:51:01.971Z,34.47
2023-03-11T15:53:31.791Z,34.32
2023-03-11T15:56:08.330Z,34.39
2023-03-11T15:58:39.488Z,34.73
2023-03-11T16:01:08.412Z,34.67
2023-03-11T16:03:39.012Z,34.56
2023-03-11T16:06:07.953Z,34.37
2023-03-11T16:08:36.417Z,34.27
2023-03-11T16:11:04.882Z,34.36
2023-03-11T16:13:33.281Z,34.47
2023-03-11T16:16:04.761Z,34.37
2023-03-11T16:18:33.811Z,34.17
2023-03-11T16:21:08.513Z,34.47
2023-03-11T16:23:50.678Z,34.59
2023-03-11T16:26:21.002Z,34.71
2023-03-11T16:28:49.622Z,34.74
2023-03-11T16:31:19.474Z,34.43
2023-03-11T16:33:47.906Z,34.27
2023-03-11T16:36:16.373Z,34.47
2023-03-11T16:38:47.359Z,34.44
2023-03-11T16:41:16.629Z,34.08
2023-03-11T16:43:45.216Z,34.30
2023-03-11T16:46:13.748Z,34.30
2023-03-11T16:48:43.674Z,34.29
2023-03-11T16:51:12.145Z,34.20
2023-03-11T16:53:40.562Z,34.05
2023-03-11T16:56:09.246Z,34.23
2023-03-11T16:58:37.619Z,34.23
2023-03-11T17:01:06.284Z,34.11
2023-03-11T17:03:42.587Z,34.35
2023-03-11T17:06:12.816Z,34.70
2023-03-11T17:08:41.331Z,34.68
2023-03-11T17:11:17.606Z,34.56
2023-03-11T17:13:46.342Z,34.56
2023-03-11T17:16:15.572Z,34.59
2023-03-11T17:18:43.962Z,34.59
2023-03-11T17:21:16.109Z,34.81
2023-03-11T17:23:45.290Z,35.14
2023-03-11T17:26:16.393Z,35.00
2023-03-11T17:28:45.062Z,34.90
2023-03-11T17:31:14.486Z,35.00
2023-03-11T17:33:43.649Z,35.02
2023-03-11T17:36:17.081Z,35.08
2023-03-11T17:38:46.511Z,35.06
2023-03-11T17:41:17.423Z,35.08
2023-03-11T17:43:46.675Z,35.16
2023-03-11T17:46:17.835Z,35.47
2023-03-11T17:48:48.620Z,35.27
2023-03-11T17:51:20.775Z,35.55
2023-03-11T17:53:51.646Z,35.30
2023-03-11T17:56:21.423Z,35.51
2023-03-11T17:58:50.795Z,35.56
2023-03-11T18:01:23.282Z,35.23
2023-03-11T18:03:52.339Z,35.59
2023-03-11T18:06:23.393Z,35.64
2023-03-11T18:08:52.533Z,35.59
2023-03-11T18:11:23.854Z,35.55
2023-03-11T18:13:53.252Z,35.78
2023-03-11T18:16:23.939Z,35.62
2023-03-11T18:18:52.410Z,35.71
2023-03-11T18:21:25.085Z,35.89
2023-03-11T18:23:55.217Z,35.95
2023-03-11T18:26:25.240Z,35.91
2023-03-11T18:28:54.788Z,35.92
2023-03-11T18:31:24.827Z,35.87
2023-03-11T18:33:55.795Z,36.05
2023-03-11T18:36:28.129Z,36.12
2023-03-11T18:38:58.746Z,35.91
2023-03-11T18:41:28.467Z,35.98
2023-03-11T18:43:58.294Z,35.92
2023-03-11T18:46:29.059Z,36.14
2023-03-11T18:48:59.509Z,36.26
2023-03-11T18:51:31.568Z,36.39
2023-03-11T18:54:01.654Z,36.05
2023-03-11T18:56:32.095Z,36.31
2023-03-11T18:59:01.178Z,36.30
2023-03-11T19:01:29.779Z,36.20
2023-03-11T19:04:00.452Z,36.42
2023-03-11T19:06:30.756Z,36.36
2023-03-11T19:08:59.512Z,36.54
2023-03-11T19:11:28.131Z,36.55
2023-03-11T19:13:57.378Z,36.20
2023-03-11T19:16:27.645Z,36.45
2023-03-11T19:18:56.622Z,36.74
2023-03-11T19:21:25.861Z,36.33
2023-03-11T19:23:56.560Z,36.79
2023-03-11T19:26:43.116Z,36.71
2023-03-11T19:29:12.798Z,36.60
2023-03-11T19:31:41.065Z,36.67
2023-03-11T19:34:09.354Z,36.69
2023-03-11T19:36:37.654Z,37.09
2023-03-11T19:39:07.710Z,36.82
2023-03-11T19:41:36.194Z,37.08
2023-03-11T19:44:04.601Z,37.05
2023-03-11T19:46:34.689Z,37.05
2023-03-11T19:49:03.851Z,36.98
2023-03-11T19:51:46.391Z,36.94
2023-03-11T19:54:18.168Z,36.89
2023-03-11T19:56:46.817Z,37.13
2023-03-11T19:59:15.529Z,36.86
2023-03-11T20:01:43.919Z,37.14
2023-03-11T20:04:12.585Z,37.13
2023-03-11T20:06:41.109Z,37.41
2023-03-11T20:09:09.485Z,37.28
2023-03-11T20:11:41.404Z,37.24
2023-03-11T20:14:11.410Z,37.14
2023-03-11T20:16:40.230Z,37.00
2023-03-11T20:19:08.970Z,37.17
2023-03-11T20:21:39.335Z,37.27
2023-03-11T20:24:08.973Z,37.40
2023-03-11T20:26:37.820Z,37.45
2023-03-11T20:29:08.050Z,37.19
2023-03-11T20:31:37.454Z,37.31
2023-03-11T20:34:05.968Z,37.47
2023-03-11T20:36:35.118Z,37.28
2023-03-11T20:39:05.853Z,37.52
2023-03-11T20:41:38.734Z,37.33
2023-03-11T20:44:11.897Z,37.30
2023-03-11T20:46:40.334Z,37.71
2023-03-11T20:49:08.793Z,37.34
2023-03-11T20:51:39.640Z,37.35
2023-03-11T20:54:09.417Z,37.41
2023-03-11T20:56:37.972Z,37.53
2023-03-11T20:59:07.782Z,37.46
2023-03-11T21:01:36.726Z,37.79
2023-03-11T21:04:05.997Z,37.59
2023-03-11T21:06:37.294Z,37.81
2023-03-11T21:09:08.453Z,37.66
2023-03-11T21:11:36.802Z,37.60
2023-03-11T21:14:07.968Z,37.71
2023-03-11T21:16:37.236Z,37.51
2023-03-11T21:19:08.441Z,37.53
2023-03-11T21:21:37.306Z,37.92
2023-03-11T21:24:06.852Z,37.95
2023-03-11T21:26:35.278Z,37.68
2023-03-11T21:29:04.254Z,38.00
2023-03-11T21:31:34.207Z,38.20
2023-03-11T21:34:02.993Z,38.31
2023-03-11T21:36:31.542Z,38.37
2023-03-11T21:39:02.884Z,38.28
2023-03-11T21:41:32.014Z,38.34
2023-03-11T21:44:00.437Z,38.12
2023-03-11T21:46:33.386Z,38.58
2023-03-11T21:49:02.392Z,38.16
2023-03-11T21:51:31.950Z,38.38
2023-03-11T21:54:00.433Z,38.55
2023-03-11T21:56:29.402Z,38.68
2023-03-11T21:58:57.906Z,38.79
2023-03-11T22:01:26.467Z,39.20
2023-03-11T22:03:56.676Z,38.67
2023-03-11T22:06:25.133Z,38.73
2023-03-11T22:08:54.016Z,39.09
2023-03-11T22:11:22.429Z,38.97
2023-03-11T22:13:54.089Z,39.16
2023-03-11T22:16:24.252Z,39.36
2023-03-11T22:18:53.248Z,39.22
2023-03-11T22:21:23.237Z,39.21
2023-03-11T22:23:51.539Z,39.24
2023-03-11T22:26:19.816Z,39.29
2023-03-11T22:28:48.217Z,39.36
2023-03-11T22:31:19.078Z,39.52
2023-03-11T22:33:47.784Z,39.56
2023-03-11T22:36:16.157Z,39.84
2023-03-11T22:38:45.862Z,39.54
2023-03-11T22:41:16.851Z,39.67
2023-03-11T22:43:45.183Z,39.89
2023-03-11T22:46:13.645Z,39.76
2023-03-11T22:48:42.106Z,39.93
2023-03-11T22:51:10.653Z,39.92
2023-03-11T22:53:38.942Z,39.67
2023-03-11T22:56:14.386Z,40.14
2023-03-11T22:58:43.416Z,40.10
2023-03-11T23:01:12.106Z,40.06
2023-03-11T23:03:41.166Z,39.96
2023-03-11T23:06:14.484Z,40.40
2023-03-11T23:08:42.777Z,39.96
2023-03-11T23:11:18.567Z,40.08
2023-03-11T23:13:46.832Z,40.00
2023-03-11T23:16:18.229Z,40.17
2023-03-11T23:18:48.363Z,40.20
2023-03-11T23:21:18.509Z,40.13
2023-03-11T23:23:47.474Z,40.52
2023-03-11T23:26:18.164Z,40.60
2023-03-11T23:28:47.270Z,40.44
2023-03-11T23:31:17.413Z,40.21
2023-03-11T23:33:46.699Z,40.62
2023-03-11T23:36:18.350Z,40.51
2023-03-11T23:38:47.060Z,40.75
2023-03-11T23:41:19.780Z,40.65
2023-03-11T23:43:48.565Z,40.75
2023-03-11T23:46:17.149Z,40.77
2023-03-11T23:48:45.565Z,40.69
2023-03-11T23:51:14.130Z,40.76
2023-03-11T23:53:42.480Z,41.09
2023-03-11T23:56:13.915Z,40.92
2023-03-11T23:58:43.766Z,41.32
